George, IA

6:47 PM CDT on July 31, 2014 (GMT -0500)
Sheldon Municipal (KSHL) Elev 1417 ft | 43.21 °N, 95.84 °W | Change Station

Current weather conditions updated 12 minutes ago

Clear
Clear
73 °F
Feels Like 73 °F
N
8
Wind Variable Wind from SW

Tomorrow is forecast to be Warmer than today.

Today
High -- | Low -- °F
--% Chance of Precip.
Yesterday
High -- | Low -- °F
Precip. -- in
6:12 AM 8:47 PM
Waxing Crescent, 21% visible
Pressure 30.04 in
Visibility 10.0 miles
Clouds Clear
Dew Point 63 °F
Humidity 69%
Rainfall 0.00 in
Snow Depth Not available.
UV 2 out of 12
Pollen 6.40 out of 12
Air Quality Not available.
Flu Activity Not available.
METAR KSHL 312335Z AUTO 22007KT 10SM CLR 23/17 A3004 RMK AO2

More Conditions Fewer Conditions

Pressure 30.04 in
Visibility 10.0 miles
Clouds Clear
Dew Point 63 °F
Humidity 69%
Rainfall 0.00 in
Snow Depth Not available.
UV 2 out of 12
Pollen 6.40 out of 12
Air Quality Not available.
Flu Activity Not available.
METAR KSHL 312335Z AUTO 22007KT 10SM CLR 23/17 A3004 RMK AO2

More Conditions Fewer Conditions

10-Day Weather Forecast

Almanac

Astronomy

Jul. 31, 2014 Rise Set
Actual Time 6:12 AM CDT 8:47 PM CDT
Civil Twilight 5:40 AM CDT 9:19 PM CDT
Nautical Twilight 4:59 AM CDT 10:00 PM CDT
Astronomical Twilight 4:13 AM CDT 10:46 PM CDT
Moon 10:50 AM CDT 10:50 PM CDT
Length of Visible Light 15h 39m
Length of Day
14h 34m
Tomorrow will be 2m 14s shorter.
Waxing Crescent, 21% of the Moon is Illuminated
Today
Waxing Crescent
Aug 3
First Quarter
Aug 10
Full
Aug 17
Last Quarter
Aug 25
New

Today's Extremes

State Highs State Lows

Community

WunderPhotos

Upload Photos

1,739,460 photos uploaded!

Nearby

Snow Depth

Station Depth Elevation
No new snow has been reported.

Earthquake Activity

City Distance Mag. Time & Date
No recent earthquake activity has been reported nearby.
Minimum magnitude displayed is 2.5.

Coastal Water Temperatures

Place Temperature
No Stations Reporting

Nearby Weather Stations

Station Location Temp. Heat Index Dew Point Humidity Wind Precip. Elev Updated Type
MesoWest SIBLEY , Sibley, IA 81 °F 79 °F - - North  at  - 0.00 in / hr 1530 ft 4:30 PM CDT MADIS
Wilson Street, Sheldon, IA 75.2 °F 76 °F 68 °F 77% WSW  at  0.0 mph 0.00 in / hr 1447 ft 6:47 PM CDT Rapid Fire
MesoWest HOSPER , Hospers, IA 77 °F 75 °F - - North  at  - 0.00 in / hr 1375 ft 5:30 PM CDT MADIS
RV south east, Rock Valley, IA 83.7 °F 84 °F 60 °F 45% WNW  at  2.2 mph - / hr 1309 ft 6:47 PM CDT Normal
Sioux Center IA, Sioux Center, IA 78.5 °F 80 °F 59 °F 52% South  at  5.0 mph 0.00 in / hr 1470 ft 6:45 PM CDT Normal
Sioux Center, Sioux Center, IA 77.6 °F 79 °F 60 °F 55% SW  at  5.0 mph 0.00 in / hr 1411 ft 6:45 PM CDT Normal
Campingfarmer, Rock Valley, IA 77.0 °F 79 °F 59 °F 54% South  at  3.1 mph 0.00 in / hr 1253 ft 6:45 PM CDT Normal

Show More Stations Show Fewer Stations